Blessing Sw — 3FIP7 — position and weather

sailwx.info

Track history (hours):
 
Tides and Currents Weather Stations Pressure Air Temp Water Temp Dewpoint Dewpoint Depression Visibility Wind Speed Wind Dir Waves Ship Positions

Blessing Sw

Last reported at 2016-Jan-30 21:06 UTC. Time now 2016-Feb-14 10:13 UTC.
Position S 31°36' E 032°54'.
Warning: this ship's position is 14 days out of date.

Length 171 m; draft 5.6 m.

Type: Cargo ship. MMSI: 372085000.

Date/timePositionNaut miles runAvg speedWind from/ knotsBaromVisibWave heightAir tempDewpointWater temp
2016-Jan-30 21:06S 31°36' E 032°54'711.8
2016-Jan-30 20:33S 31°39' E 032°47'1211.4
2016-Jan-30 19:31S 31°44' E 032°35'1110.8
2016-Jan-30 18:33S 31°48' E 032°23'1310.6
2016-Jan-30 17:18S 31°54' E 032°09'2210.8
2016-Jan-30 15:14S 32°04' E 031°45'2011.3
2016-Jan-30 13:28S 32°12' E 031°24'2611.3
2016-Jan-30 11:08S 32°23' E 030°55'711.3
2016-Jan-30 10:32S 32°25' E 030°48'271 9.7
2016-Jan-29 06:27S 34°15' E 025°51'1613.2
2016-Jan-29 05:15S 34°20' E 025°33'913.1
2016-Jan-29 04:33S 34°22' E 025°22'  
Track history (hours):
 
Tides and Currents Weather Stations Pressure Air Temp Water Temp Dewpoint Dewpoint Depression Visibility Wind Speed Wind Dir Waves Ship Positions

Blessing Sw

Last reported at 2016-Jan-30 21:06 UTC. Time now 2016-Feb-14 10:13 UTC.
Position S 31°36' E 032°54'.
Warning: this ship's position is 14 days out of date.

Length 171 m; draft 5.6 m.

Type: Cargo ship. MMSI: 372085000.

Date/timePositionNaut miles runAvg speedWind from/ knotsBaromVisibWave heightAir tempDewpointWater temp
2016-Jan-30 21:06S 31°36' E 032°54'711.8
2016-Jan-30 20:33S 31°39' E 032°47'1211.4
2016-Jan-30 19:31S 31°44' E 032°35'1110.8
2016-Jan-30 18:33S 31°48' E 032°23'1310.6
2016-Jan-30 17:18S 31°54' E 032°09'2210.8
2016-Jan-30 15:14S 32°04' E 031°45'2011.3
2016-Jan-30 13:28S 32°12' E 031°24'2611.3
2016-Jan-30 11:08S 32°23' E 030°55'711.3
2016-Jan-30 10:32S 32°25' E 030°48'271 9.7
2016-Jan-29 06:27S 34°15' E 025°51'1613.2
2016-Jan-29 05:15S 34°20' E 025°33'913.1
2016-Jan-29 04:33S 34°22' E 025°22'  

Dump ship's entire track history